sensor_id;sensor_type;location;lat;lon;timestamp;pressure;altitude;pressure_sealevel;temperature;humidity
18850;BME280;4989;48.772;9.154;2023-04-05T00:00:48;98549.06;;;5.99;63.05
18850;BME280;4989;48.772;9.154;2023-04-05T00:05:51;98548.88;;;5.70;59.37
18850;BME280;4989;48.772;9.154;2023-04-05T00:10:56;98545.88;;;5.82;60.50
18850;BME280;4989;48.772;9.154;2023-04-05T00:15:59;98547.44;;;4.94;62.71
18850;BME280;4989;48.772;9.154;2023-04-05T00:21:02;98532.22;;;5.57;65.38
18850;BME280;4989;48.772;9.154;2023-04-05T00:26:05;98525.97;;;5.97;61.17
18850;BME280;4989;48.772;9.154;2023-04-05T00:31:08;98519.94;;;6.29;57.00
18850;BME280;4989;48.772;9.154;2023-04-05T00:36:15;98512.31;;;6.53;54.09
18850;BME280;4989;48.772;9.154;2023-04-05T00:41:18;98515.47;;;6.83;59.54
18850;BME280;4989;48.772;9.154;2023-04-05T00:46:21;98505.47;;;6.91;53.24
18850;BME280;4989;48.772;9.154;2023-04-05T00:51:24;98507.78;;;6.85;52.15
18850;BME280;4989;48.772;9.154;2023-04-05T00:56:27;98499.28;;;6.83;53.37
18850;BME280;4989;48.772;9.154;2023-04-05T01:01:32;98493.00;;;6.36;55.59
18850;BME280;4989;48.772;9.154;2023-04-05T01:06:56;98492.00;;;4.90;58.63
18850;BME280;4989;48.772;9.154;2023-04-05T01:12:05;98489.16;;;4.38;60.13
18850;BME280;4989;48.772;9.154;2023-04-05T01:17:10;98477.59;;;4.34;60.59
18850;BME280;4989;48.772;9.154;2023-04-05T01:38:24;98455.53;;;4.58;64.00
18850;BME280;4989;48.772;9.154;2023-04-05T01:43:28;98458.44;;;4.39;67.49
18850;BME280;4989;48.772;9.154;2023-04-05T01:48:31;98459.00;;;4.22;71.37
18850;BME280;4989;48.772;9.154;2023-04-05T01:53:34;98457.69;;;4.42;74.42
18850;BME280;4989;48.772;9.154;2023-04-05T01:58:38;98449.16;;;4.36;72.11
18850;BME280;4989;48.772;9.154;2023-04-05T02:03:41;98453.06;;;4.39;64.07
18850;BME280;4989;48.772;9.154;2023-04-05T02:08:44;98441.88;;;4.78;71.22
18850;BME280;4989;48.772;9.154;2023-04-05T02:13:47;98438.81;;;4.79;65.28
18850;BME280;4989;48.772;9.154;2023-04-05T02:18:50;98438.50;;;4.47;66.77
18850;BME280;4989;48.772;9.154;2023-04-05T02:23:53;98436.97;;;4.46;64.17
18850;BME280;4989;48.772;9.154;2023-04-05T02:28:56;98431.59;;;4.46;68.23
18850;BME280;4989;48.772;9.154;2023-04-05T02:33:58;98433.22;;;4.54;74.07
18850;BME280;4989;48.772;9.154;2023-04-05T02:39:02;98432.03;;;4.15;69.90
18850;BME280;4989;48.772;9.154;2023-04-05T02:44:06;98430.56;;;4.21;70.05
18850;BME280;4989;48.772;9.154;2023-04-05T02:49:08;98432.91;;;4.26;71.46
18850;BME280;4989;48.772;9.154;2023-04-05T02:54:12;98428.78;;;4.02;76.13
18850;BME280;4989;48.772;9.154;2023-04-05T02:59:17;98427.97;;;4.31;67.93
18850;BME280;4989;48.772;9.154;2023-04-05T03:04:20;98432.38;;;4.50;66.97
18850;BME280;4989;48.772;9.154;2023-04-05T03:09:22;98426.72;;;4.22;71.54
18850;BME280;4989;48.772;9.154;2023-04-05T03:14:31;98426.09;;;4.35;76.86
18850;BME280;4989;48.772;9.154;2023-04-05T03:19:35;98426.97;;;4.47;78.95
18850;BME280;4989;48.772;9.154;2023-04-05T03:24:47;98415.34;;;4.02;81.66
18850;BME280;4989;48.772;9.154;2023-04-05T03:29:52;98418.91;;;4.09;69.57
18850;BME280;4989;48.772;9.154;2023-04-05T03:34:55;98422.34;;;3.76;76.50
18850;BME280;4989;48.772;9.154;2023-04-05T03:39:59;98420.91;;;3.86;69.61
18850;BME280;4989;48.772;9.154;2023-04-05T03:45:01;98427.84;;;4.54;79.96
18850;BME280;4989;48.772;9.154;2023-04-05T03:50:06;98419.69;;;4.92;75.09
18850;BME280;4989;48.772;9.154;2023-04-05T03:55:09;98412.75;;;4.46;66.18
18850;BME280;4989;48.772;9.154;2023-04-05T04:00:13;98413.63;;;4.57;69.78
18850;BME280;4989;48.772;9.154;2023-04-05T04:05:16;98410.81;;;4.47;70.11
18850;BME280;4989;48.772;9.154;2023-04-05T04:10:24;98416.13;;;4.36;68.99
18850;BME280;4989;48.772;9.154;2023-04-05T04:15:31;98418.88;;;4.43;68.24
18850;BME280;4989;48.772;9.154;2023-04-05T04:20:50;98410.31;;;4.75;71.23
18850;BME280;4989;48.772;9.154;2023-04-05T04:26:08;98416.06;;;5.18;89.64
18850;BME280;4989;48.772;9.154;2023-04-05T04:31:33;98423.53;;;5.42;87.42
18850;BME280;4989;48.772;9.154;2023-04-05T04:36:58;98417.50;;;5.63;80.91
18850;BME280;4989;48.772;9.154;2023-04-05T04:42:38;98421.06;;;5.23;78.61
18850;BME280;4989;48.772;9.154;2023-04-05T04:48:12;98413.50;;;4.88;69.83
18850;BME280;4989;48.772;9.154;2023-04-05T04:53:25;98412.84;;;5.01;71.19
18850;BME280;4989;48.772;9.154;2023-04-05T04:58:27;98420.38;;;4.81;67.78
18850;BME280;4989;48.772;9.154;2023-04-05T05:03:37;98418.97;;;4.98;73.98
18850;BME280;4989;48.772;9.154;2023-04-05T05:08:40;98428.72;;;5.17;68.94
18850;BME280;4989;48.772;9.154;2023-04-05T05:13:43;98436.09;;;5.24;74.87
18850;BME280;4989;48.772;9.154;2023-04-05T05:18:56;98428.09;;;5.38;73.84
18850;BME280;4989;48.772;9.154;2023-04-05T05:24:04;98438.97;;;5.53;66.01
18850;BME280;4989;48.772;9.154;2023-04-05T05:29:08;98428.72;;;5.17;71.91
18850;BME280;4989;48.772;9.154;2023-04-05T05:34:15;98427.53;;;5.66;86.76
18850;BME280;4989;48.772;9.154;2023-04-05T05:39:24;98420.38;;;6.03;66.71
18850;BME280;4989;48.772;9.154;2023-04-05T05:44:27;98428.16;;;6.22;64.12
18850;BME280;4989;48.772;9.154;2023-04-05T05:49:30;98415.34;;;5.97;65.78
18850;BME280;4989;48.772;9.154;2023-04-05T05:54:32;98415.75;;;6.00;64.72
18850;BME280;4989;48.772;9.154;2023-04-05T05:59:35;98427.44;;;6.47;62.97
18850;BME280;4989;48.772;9.154;2023-04-05T06:04:38;98423.56;;;6.44;66.52
18850;BME280;4989;48.772;9.154;2023-04-05T06:09:41;98432.13;;;6.89;62.26
18850;BME280;4989;48.772;9.154;2023-04-05T06:14:43;98433.31;;;7.06;59.57
18850;BME280;4989;48.772;9.154;2023-04-05T06:19:46;98429.03;;;7.41;59.08
18850;BME280;4989;48.772;9.154;2023-04-05T06:24:50;98425.91;;;7.64;56.75
18850;BME280;4989;48.772;9.154;2023-04-05T06:29:53;98435.84;;;7.99;59.52
18850;BME280;4989;48.772;9.154;2023-04-05T06:34:56;98436.44;;;8.32;57.59
18850;BME280;4989;48.772;9.154;2023-04-05T06:39:59;98431.72;;;8.57;60.50
18850;BME280;4989;48.772;9.154;2023-04-05T06:45:02;98432.59;;;8.33;52.46
18850;BME280;4989;48.772;9.154;2023-04-05T06:50:07;98435.50;;;8.70;54.32
18850;BME280;4989;48.772;9.154;2023-04-05T06:55:10;98435.44;;;9.30;62.09
18850;BME280;4989;48.772;9.154;2023-04-05T07:00:13;98435.94;;;9.93;54.80
18850;BME280;4989;48.772;9.154;2023-04-05T07:05:18;98443.41;;;10.20;49.37
18850;BME280;4989;48.772;9.154;2023-04-05T07:10:21;98437.91;;;10.27;48.61
18850;BME280;4989;48.772;9.154;2023-04-05T07:15:24;98447.00;;;10.71;58.44
18850;BME280;4989;48.772;9.154;2023-04-05T07:20:26;98445.00;;;11.02;47.05
18850;BME280;4989;48.772;9.154;2023-04-05T07:25:29;98440.97;;;11.34;44.59
18850;BME280;4989;48.772;9.154;2023-04-05T07:30:31;98436.22;;;11.81;45.15
18850;BME280;4989;48.772;9.154;2023-04-05T07:35:34;98439.59;;;12.09;42.91
18850;BME280;4989;48.772;9.154;2023-04-05T07:40:38;98443.13;;;12.46;44.81
18850;BME280;4989;48.772;9.154;2023-04-05T07:45:41;98434.81;;;12.86;42.63
18850;BME280;4989;48.772;9.154;2023-04-05T07:50:44;98440.63;;;12.71;42.47
18850;BME280;4989;48.772;9.154;2023-04-05T07:55:49;98436.53;;;12.79;43.82
18850;BME280;4989;48.772;9.154;2023-04-05T08:00:52;98436.00;;;13.66;44.92
18850;BME280;4989;48.772;9.154;2023-04-05T08:05:55;98436.81;;;14.21;39.08
18850;BME280;4989;48.772;9.154;2023-04-05T08:10:57;98438.44;;;14.74;39.67
18850;BME280;4989;48.772;9.154;2023-04-05T08:16:00;98439.56;;;15.24;39.94
18850;BME280;4989;48.772;9.154;2023-04-05T08:21:04;98438.09;;;15.45;42.02
18850;BME280;4989;48.772;9.154;2023-04-05T08:26:06;98442.41;;;16.34;39.17
18850;BME280;4989;48.772;9.154;2023-04-05T08:31:09;98432.63;;;16.23;40.54
18850;BME280;4989;48.772;9.154;2023-04-05T08:36:17;98437.72;;;17.15;38.46
18850;BME280;4989;48.772;9.154;2023-04-05T08:41:23;98439.03;;;17.78;32.88
18850;BME280;4989;48.772;9.154;2023-04-05T08:46:32;98439.56;;;18.38;33.63
18850;BME280;4989;48.772;9.154;2023-04-05T08:51:37;98434.88;;;19.05;31.79
18850;BME280;4989;48.772;9.154;2023-04-05T08:56:46;98446.09;;;19.73;30.60
18850;BME280;4989;48.772;9.154;2023-04-05T09:01:50;98448.31;;;19.84;34.01
18850;BME280;4989;48.772;9.154;2023-04-05T09:06:57;98433.25;;;19.70;29.64
18850;BME280;4989;48.772;9.154;2023-04-05T09:12:02;98435.31;;;20.58;29.42
18850;BME280;4989;48.772;9.154;2023-04-05T09:17:05;98442.19;;;20.98;29.47
18850;BME280;4989;48.772;9.154;2023-04-05T09:22:09;98433.69;;;20.37;26.28
18850;BME280;4989;48.772;9.154;2023-04-05T09:27:16;98444.34;;;19.37;27.81
18850;BME280;4989;48.772;9.154;2023-04-05T09:32:25;98437.16;;;21.17;29.48
18850;BME280;4989;48.772;9.154;2023-04-05T09:37:31;98444.38;;;22.17;25.29
18850;BME280;4989;48.772;9.154;2023-04-05T09:42:44;98436.59;;;22.47;26.26
18850;BME280;4989;48.772;9.154;2023-04-05T09:47:55;98431.25;;;23.07;27.44
18850;BME280;4989;48.772;9.154;2023-04-05T09:53:08;98431.72;;;23.65;24.61
18850;BME280;4989;48.772;9.154;2023-04-05T09:58:20;98429.56;;;23.92;24.23
18850;BME280;4989;48.772;9.154;2023-04-05T10:03:25;98423.81;;;24.40;24.36
18850;BME280;4989;48.772;9.154;2023-04-05T10:08:28;98424.19;;;23.06;22.59
18850;BME280;4989;48.772;9.154;2023-04-05T10:13:32;98422.59;;;22.04;23.90
18850;BME280;4989;48.772;9.154;2023-04-05T10:18:46;98401.63;;;23.41;23.94
18850;BME280;4989;48.772;9.154;2023-04-05T10:24:00;98408.19;;;23.44;22.90
18850;BME280;4989;48.772;9.154;2023-04-05T10:29:13;98400.81;;;24.62;24.15
18850;BME280;4989;48.772;9.154;2023-04-05T10:34:30;98394.50;;;24.73;22.60
18850;BME280;4989;48.772;9.154;2023-04-05T10:39:44;98399.78;;;24.20;21.64
18850;BME280;4989;48.772;9.154;2023-04-05T10:44:52;98391.47;;;24.60;21.68
18850;BME280;4989;48.772;9.154;2023-04-05T10:50:03;98388.72;;;23.32;24.51
18850;BME280;4989;48.772;9.154;2023-04-05T10:55:10;98383.13;;;24.32;23.18
18850;BME280;4989;48.772;9.154;2023-04-05T11:00:15;98387.06;;;25.21;22.34
18850;BME280;4989;48.772;9.154;2023-04-05T11:10:35;98381.88;;;26.60;23.25
18850;BME280;4989;48.772;9.154;2023-04-05T11:15:39;98369.19;;;25.57;21.66
18850;BME280;4989;48.772;9.154;2023-04-05T11:25:55;98362.34;;;26.85;21.04
18850;BME280;4989;48.772;9.154;2023-04-05T11:36:35;98350.88;;;27.89;22.67
18850;BME280;4989;48.772;9.154;2023-04-05T11:41:39;98336.19;;;27.69;21.24
18850;BME280;4989;48.772;9.154;2023-04-05T11:46:44;98332.06;;;28.08;22.42
18850;BME280;4989;48.772;9.154;2023-04-05T11:51:49;98337.00;;;28.15;21.87
18850;BME280;4989;48.772;9.154;2023-04-05T11:56:52;98329.09;;;26.62;19.13
18850;BME280;4989;48.772;9.154;2023-04-05T12:02:02;98328.84;;;26.66;21.29
18850;BME280;4989;48.772;9.154;2023-04-05T12:12:17;98311.56;;;25.41;23.21
18850;BME280;4989;48.772;9.154;2023-04-05T12:17:37;98310.72;;;23.08;21.71
18850;BME280;4989;48.772;9.154;2023-04-05T12:22:42;98305.00;;;22.74;24.71
18850;BME280;4989;48.772;9.154;2023-04-05T12:27:45;98291.88;;;22.26;23.15
18850;BME280;4989;48.772;9.154;2023-04-05T12:32:52;98291.78;;;20.49;24.85
18850;BME280;4989;48.772;9.154;2023-04-05T12:38:00;98298.97;;;22.27;23.48
18850;BME280;4989;48.772;9.154;2023-04-05T12:43:08;98291.38;;;21.38;27.83
18850;BME280;4989;48.772;9.154;2023-04-05T12:48:19;98294.72;;;20.81;33.11
18850;BME280;4989;48.772;9.154;2023-04-05T12:53:25;98279.00;;;20.67;27.24
18850;BME280;4989;48.772;9.154;2023-04-05T12:58:36;98275.59;;;22.88;23.03
18850;BME280;4989;48.772;9.154;2023-04-05T13:08:49;98264.06;;;21.46;26.95
18850;BME280;4989;48.772;9.154;2023-04-05T13:13:52;98254.31;;;21.30;24.88
18850;BME280;4989;48.772;9.154;2023-04-05T13:18:55;98251.66;;;22.91;25.88
18850;BME280;4989;48.772;9.154;2023-04-05T13:23:58;98247.00;;;23.42;24.02
18850;BME280;4989;48.772;9.154;2023-04-05T13:29:00;98242.25;;;23.93;23.07
18850;BME280;4989;48.772;9.154;2023-04-05T13:34:04;98244.91;;;25.54;21.13
18850;BME280;4989;48.772;9.154;2023-04-05T13:39:07;98240.25;;;25.98;21.79
18850;BME280;4989;48.772;9.154;2023-04-05T13:44:10;98241.88;;;25.17;20.65
18850;BME280;4989;48.772;9.154;2023-04-05T13:49:13;98228.22;;;25.19;21.85
18850;BME280;4989;48.772;9.154;2023-04-05T13:54:16;98227.63;;;24.84;20.86
18850;BME280;4989;48.772;9.154;2023-04-05T13:59:20;98225.03;;;25.39;21.60
18850;BME280;4989;48.772;9.154;2023-04-05T14:04:23;98219.44;;;26.30;20.94
18850;BME280;4989;48.772;9.154;2023-04-05T14:09:25;98207.81;;;25.71;19.85
18850;BME280;4989;48.772;9.154;2023-04-05T14:14:28;98195.59;;;25.49;21.04
18850;BME280;4989;48.772;9.154;2023-04-05T14:19:31;98191.06;;;26.07;22.56
18850;BME280;4989;48.772;9.154;2023-04-05T14:24:34;98193.72;;;25.93;23.78
18850;BME280;4989;48.772;9.154;2023-04-05T14:29:36;98199.84;;;25.56;23.90
18850;BME280;4989;48.772;9.154;2023-04-05T14:34:39;98203.47;;;25.04;25.27
18850;BME280;4989;48.772;9.154;2023-04-05T14:39:42;98194.56;;;24.70;25.59
18850;BME280;4989;48.772;9.154;2023-04-05T14:44:45;98192.41;;;24.45;25.50
18850;BME280;4989;48.772;9.154;2023-04-05T14:49:48;98185.34;;;24.33;23.15
18850;BME280;4989;48.772;9.154;2023-04-05T14:54:50;98181.84;;;21.46;23.10
18850;BME280;4989;48.772;9.154;2023-04-05T14:59:54;98184.00;;;22.54;24.19
18850;BME280;4989;48.772;9.154;2023-04-05T15:04:56;98171.56;;;23.04;28.83
18850;BME280;4989;48.772;9.154;2023-04-05T15:10:02;98176.94;;;22.53;26.12
18850;BME280;4989;48.772;9.154;2023-04-05T15:15:05;98176.63;;;22.34;25.78
18850;BME280;4989;48.772;9.154;2023-04-05T15:20:08;98176.16;;;21.99;26.51
18850;BME280;4989;48.772;9.154;2023-04-05T15:25:12;98169.69;;;21.38;28.01
18850;BME280;4989;48.772;9.154;2023-04-05T15:30:15;98174.91;;;21.04;25.88
18850;BME280;4989;48.772;9.154;2023-04-05T15:35:18;98172.75;;;20.47;29.89
18850;BME280;4989;48.772;9.154;2023-04-05T15:40:21;98169.22;;;19.71;26.58
18850;BME280;4989;48.772;9.154;2023-04-05T15:45:24;98170.19;;;19.38;32.67
18850;BME280;4989;48.772;9.154;2023-04-05T15:50:27;98176.75;;;19.26;26.16
18850;BME280;4989;48.772;9.154;2023-04-05T15:55:29;98167.72;;;19.10;27.67
18850;BME280;4989;48.772;9.154;2023-04-05T16:00:32;98173.19;;;18.81;26.91
18850;BME280;4989;48.772;9.154;2023-04-05T16:05:35;98165.16;;;18.05;26.27
18850;BME280;4989;48.772;9.154;2023-04-05T16:10:37;98159.72;;;17.96;30.63
18850;BME280;4989;48.772;9.154;2023-04-05T16:15:40;98161.13;;;17.39;31.73
18850;BME280;4989;48.772;9.154;2023-04-05T16:20:43;98167.19;;;17.10;33.68
18850;BME280;4989;48.772;9.154;2023-04-05T16:25:46;98166.44;;;16.55;39.15
18850;BME280;4989;48.772;9.154;2023-04-05T16:30:49;98163.06;;;16.32;34.29
18850;BME280;4989;48.772;9.154;2023-04-05T16:35:53;98158.16;;;16.09;35.60
18850;BME280;4989;48.772;9.154;2023-04-05T16:40:57;98165.69;;;15.77;33.35
18850;BME280;4989;48.772;9.154;2023-04-05T16:45:59;98171.53;;;15.26;33.42
18850;BME280;4989;48.772;9.154;2023-04-05T16:51:03;98166.47;;;14.93;38.46
18850;BME280;4989;48.772;9.154;2023-04-05T16:56:08;98167.72;;;14.57;38.03
18850;BME280;4989;48.772;9.154;2023-04-05T17:01:11;98165.50;;;14.65;35.88
18850;BME280;4989;48.772;9.154;2023-04-05T17:06:14;98169.34;;;14.55;38.20
18850;BME280;4989;48.772;9.154;2023-04-05T17:11:17;98176.69;;;14.45;39.50
18850;BME280;4989;48.772;9.154;2023-04-05T17:16:20;98180.44;;;14.51;37.39
18850;BME280;4989;48.772;9.154;2023-04-05T17:21:23;98181.00;;;14.33;38.07
18850;BME280;4989;48.772;9.154;2023-04-05T17:26:27;98184.72;;;14.27;34.17
18850;BME280;4989;48.772;9.154;2023-04-05T17:31:30;98187.38;;;14.17;34.15
18850;BME280;4989;48.772;9.154;2023-04-05T17:36:34;98194.06;;;14.16;39.87
18850;BME280;4989;48.772;9.154;2023-04-05T17:41:37;98191.69;;;13.93;36.66
18850;BME280;4989;48.772;9.154;2023-04-05T17:46:40;98190.03;;;13.83;37.44
18850;BME280;4989;48.772;9.154;2023-04-05T17:51:58;98196.25;;;13.70;37.75
18850;BME280;4989;48.772;9.154;2023-04-05T17:57:02;98198.69;;;13.68;40.59
18850;BME280;4989;48.772;9.154;2023-04-05T18:02:05;98194.28;;;13.58;36.64
18850;BME280;4989;48.772;9.154;2023-04-05T18:07:08;98191.38;;;13.52;36.22
18850;BME280;4989;48.772;9.154;2023-04-05T18:12:10;98193.63;;;13.41;38.76
18850;BME280;4989;48.772;9.154;2023-04-05T18:17:13;98203.22;;;13.33;42.06
18850;BME280;4989;48.772;9.154;2023-04-05T18:22:17;98208.53;;;13.24;40.80
18850;BME280;4989;48.772;9.154;2023-04-05T18:27:19;98203.91;;;13.08;38.06
18850;BME280;4989;48.772;9.154;2023-04-05T18:32:22;98210.94;;;12.64;36.28
18850;BME280;4989;48.772;9.154;2023-04-05T18:37:25;98220.97;;;12.05;41.74
18850;BME280;4989;48.772;9.154;2023-04-05T18:42:29;98225.03;;;11.60;44.57
18850;BME280;4989;48.772;9.154;2023-04-05T18:47:35;98228.72;;;11.70;46.55
18850;BME280;4989;48.772;9.154;2023-04-05T18:52:38;98223.81;;;11.81;40.84
18850;BME280;4989;48.772;9.154;2023-04-05T18:57:40;98231.13;;;11.48;41.72
18850;BME280;4989;48.772;9.154;2023-04-05T19:02:43;98249.88;;;11.26;44.04
18850;BME280;4989;48.772;9.154;2023-04-05T19:07:46;98243.44;;;11.36;48.47
18850;BME280;4989;48.772;9.154;2023-04-05T19:12:49;98242.63;;;11.56;43.58
18850;BME280;4989;48.772;9.154;2023-04-05T19:17:52;98245.66;;;11.41;49.62
18850;BME280;4989;48.772;9.154;2023-04-05T19:22:54;98247.91;;;11.07;45.31
18850;BME280;4989;48.772;9.154;2023-04-05T19:27:57;98249.22;;;11.18;45.24
18850;BME280;4989;48.772;9.154;2023-04-05T19:33:00;98253.22;;;11.14;43.51
18850;BME280;4989;48.772;9.154;2023-04-05T19:38:03;98261.16;;;11.24;42.25
18850;BME280;4989;48.772;9.154;2023-04-05T19:43:07;98258.09;;;11.03;52.91
18850;BME280;4989;48.772;9.154;2023-04-05T19:48:38;98249.97;;;10.79;43.79
18850;BME280;4989;48.772;9.154;2023-04-05T19:53:48;98251.22;;;10.51;46.67
18850;BME280;4989;48.772;9.154;2023-04-05T19:59:14;98252.13;;;10.44;55.73
18850;BME280;4989;48.772;9.154;2023-04-05T20:04:21;98241.81;;;10.79;54.94
18850;BME280;4989;48.772;9.154;2023-04-05T20:09:25;98245.13;;;10.43;50.40
18850;BME280;4989;48.772;9.154;2023-04-05T20:14:41;98252.34;;;10.30;55.01
18850;BME280;4989;48.772;9.154;2023-04-05T20:19:55;98250.53;;;10.20;45.54
18850;BME280;4989;48.772;9.154;2023-04-05T20:25:38;98256.00;;;10.16;54.44
18850;BME280;4989;48.772;9.154;2023-04-05T20:30:43;98252.44;;;10.23;45.79
18850;BME280;4989;48.772;9.154;2023-04-05T20:35:47;98249.72;;;10.23;47.69
18850;BME280;4989;48.772;9.154;2023-04-05T20:40:50;98249.16;;;10.35;46.27
18850;BME280;4989;48.772;9.154;2023-04-05T20:45:52;98250.44;;;10.00;50.60
18850;BME280;4989;48.772;9.154;2023-04-05T20:50:56;98255.16;;;9.96;48.38
18850;BME280;4989;48.772;9.154;2023-04-05T20:55:59;98246.78;;;9.86;51.56
18850;BME280;4989;48.772;9.154;2023-04-05T21:01:03;98251.53;;;9.79;49.36
18850;BME280;4989;48.772;9.154;2023-04-05T21:06:07;98246.03;;;10.09;48.76
18850;BME280;4989;48.772;9.154;2023-04-05T21:11:10;98247.88;;;9.89;45.72
18850;BME280;4989;48.772;9.154;2023-04-05T21:16:13;98247.91;;;9.58;53.44
18850;BME280;4989;48.772;9.154;2023-04-05T21:21:17;98248.38;;;9.53;53.03
18850;BME280;4989;48.772;9.154;2023-04-05T21:26:20;98255.88;;;9.42;49.34
18850;BME280;4989;48.772;9.154;2023-04-05T21:31:23;98247.19;;;9.24;51.93
18850;BME280;4989;48.772;9.154;2023-04-05T21:36:25;98247.44;;;9.02;52.33
18850;BME280;4989;48.772;9.154;2023-04-05T21:41:28;98252.72;;;9.13;50.54
18850;BME280;4989;48.772;9.154;2023-04-05T21:46:31;98251.00;;;8.92;57.47
18850;BME280;4989;48.772;9.154;2023-04-05T21:51:34;98246.41;;;8.89;57.69
18850;BME280;4989;48.772;9.154;2023-04-05T21:56:37;98240.25;;;8.85;60.11
18850;BME280;4989;48.772;9.154;2023-04-05T22:01:39;98242.69;;;8.76;57.37
18850;BME280;4989;48.772;9.154;2023-04-05T22:06:42;98246.56;;;8.75;51.93
18850;BME280;4989;48.772;9.154;2023-04-05T22:11:45;98238.66;;;8.91;49.51
18850;BME280;4989;48.772;9.154;2023-04-05T22:16:48;98246.34;;;8.92;52.42
18850;BME280;4989;48.772;9.154;2023-04-05T22:21:51;98247.16;;;8.93;50.69
18850;BME280;4989;48.772;9.154;2023-04-05T22:26:56;98246.78;;;8.91;53.91
18850;BME280;4989;48.772;9.154;2023-04-05T22:31:59;98245.28;;;8.45;55.71
18850;BME280;4989;48.772;9.154;2023-04-05T22:37:02;98244.41;;;8.55;55.74
18850;BME280;4989;48.772;9.154;2023-04-05T22:42:05;98246.50;;;8.82;70.53
18850;BME280;4989;48.772;9.154;2023-04-05T22:47:08;98233.69;;;9.16;62.12
18850;BME280;4989;48.772;9.154;2023-04-05T22:52:10;98240.75;;;9.10;61.78
18850;BME280;4989;48.772;9.154;2023-04-05T22:57:13;98233.34;;;8.39;50.20
18850;BME280;4989;48.772;9.154;2023-04-05T23:02:16;98236.53;;;7.67;50.82
18850;BME280;4989;48.772;9.154;2023-04-05T23:07:19;98237.44;;;7.43;55.05
18850;BME280;4989;48.772;9.154;2023-04-05T23:12:22;98233.59;;;7.37;52.78
18850;BME280;4989;48.772;9.154;2023-04-05T23:17:25;98245.75;;;7.73;52.11
18850;BME280;4989;48.772;9.154;2023-04-05T23:22:27;98243.69;;;7.25;57.55
18850;BME280;4989;48.772;9.154;2023-04-05T23:27:31;98244.16;;;7.02;60.75
18850;BME280;4989;48.772;9.154;2023-04-05T23:32:33;98240.81;;;6.30;53.86
18850;BME280;4989;48.772;9.154;2023-04-05T23:37:36;98239.19;;;5.79;57.03
18850;BME280;4989;48.772;9.154;2023-04-05T23:42:39;98246.19;;;6.16;61.83
18850;BME280;4989;48.772;9.154;2023-04-05T23:47:41;98243.88;;;6.57;57.21
18850;BME280;4989;48.772;9.154;2023-04-05T23:52:44;98233.69;;;7.08;56.50
18850;BME280;4989;48.772;9.154;2023-04-05T23:57:48;98233.88;;;6.11;59.18
